createdAt,value
2022-10-31T00:02:01.998Z,6.05
2022-10-31T00:04:28.919Z,6.05
2022-10-31T00:06:55.783Z,5.70
2022-10-31T00:09:22.631Z,6.45
2022-10-31T00:11:49.443Z,6.43
2022-10-31T00:14:16.279Z,6.10
2022-10-31T00:16:43.099Z,6.18
2022-10-31T00:19:10.019Z,6.22
2022-10-31T00:21:36.947Z,6.07
2022-10-31T00:24:04.109Z,6.28
2022-10-31T00:26:31.466Z,5.78
2022-10-31T00:28:59.545Z,5.90
2022-10-31T00:31:27.513Z,6.38
2022-10-31T00:33:54.353Z,6.03
2022-10-31T00:36:21.695Z,5.60
2022-10-31T00:38:48.593Z,5.75
2022-10-31T00:41:17.074Z,5.75
2022-10-31T00:43:44.250Z,5.78
2022-10-31T00:46:12.094Z,5.35
2022-10-31T00:48:39.029Z,5.60
2022-10-31T00:51:06.559Z,5.28
2022-10-31T00:53:33.372Z,5.80
2022-10-31T00:56:00.309Z,5.45
2022-10-31T00:58:28.467Z,5.55
2022-10-31T01:00:58.805Z,5.60
2022-10-31T01:03:27.351Z,5.70
2022-10-31T01:05:58.951Z,5.15
2022-10-31T01:08:26.281Z,5.97
2022-10-31T01:11:16.218Z,5.35
2022-10-31T01:13:43.488Z,5.70
2022-10-31T01:16:16.314Z,5.20
2022-10-31T01:18:43.221Z,5.43
2022-10-31T01:21:14.689Z,5.60
2022-10-31T01:23:41.696Z,5.38
2022-10-31T01:26:13.385Z,5.50
2022-10-31T01:28:46.397Z,5.90
2022-10-31T01:31:13.262Z,5.22
2022-10-31T01:33:40.233Z,5.20
2022-10-31T01:36:24.849Z,4.97
2022-10-31T01:38:52.891Z,4.60
2022-10-31T01:41:21.648Z,5.20
2022-10-31T01:43:53.702Z,5.13
2022-10-31T01:46:26.187Z,5.20
2022-10-31T01:48:54.130Z,5.60
2022-10-31T01:51:21.955Z,5.22
2022-10-31T01:53:48.948Z,4.97
2022-10-31T01:56:15.923Z,4.93
2022-10-31T01:58:42.812Z,5.45
2022-10-31T02:01:09.878Z,4.70
2022-10-31T02:03:37.785Z,3.90
2022-10-31T02:06:04.707Z,4.38
2022-10-31T02:08:32.255Z,4.30
2022-10-31T02:10:59.523Z,4.47
2022-10-31T02:15:59.388Z,4.25
2022-10-31T02:18:29.212Z,3.85
2022-10-31T02:20:58.943Z,4.10
2022-10-31T02:23:50.712Z,3.58
2022-10-31T02:26:23.798Z,4.10
2022-10-31T02:29:07.990Z,3.72
2022-10-31T02:32:01.837Z,4.07
2022-10-31T02:34:53.817Z,3.15
2022-10-31T02:37:23.350Z,3.47
2022-10-31T02:40:21.093Z,3.92
2022-10-31T02:43:32.161Z,3.63
2022-10-31T02:46:12.345Z,3.63
2022-10-31T02:48:40.220Z,3.22
2022-10-31T02:51:07.348Z,3.80
2022-10-31T02:53:36.767Z,3.30
2022-10-31T02:56:13.957Z,3.47
2022-10-31T02:59:02.397Z,3.63
2022-10-31T03:01:35.729Z,3.58
2022-10-31T03:04:40.349Z,3.40
2022-10-31T03:07:41.337Z,3.15
2022-10-31T03:10:08.241Z,3.50
2022-10-31T03:13:05.699Z,3.33
2022-10-31T03:15:46.235Z,3.35
2022-10-31T03:18:27.555Z,3.10
2022-10-31T03:21:00.209Z,3.45
2022-10-31T03:23:27.018Z,3.20
2022-10-31T03:25:54.409Z,3.30
2022-10-31T03:28:29.578Z,3.38
2022-10-31T03:30:57.204Z,2.90
2022-10-31T03:33:27.464Z,3.25
2022-10-31T03:35:56.575Z,2.95
2022-10-31T03:38:24.338Z,3.15
2022-10-31T03:40:53.145Z,3.15
2022-10-31T03:43:31.376Z,3.10
2022-10-31T03:45:58.272Z,3.20
2022-10-31T03:48:25.112Z,3.30
2022-10-31T03:51:06.331Z,2.83
2022-10-31T03:53:40.957Z,2.65
2022-10-31T03:56:20.767Z,2.70
2022-10-31T03:59:08.374Z,3.30
2022-10-31T04:01:37.353Z,2.90
2022-10-31T04:04:04.343Z,3.10
2022-10-31T04:06:31.161Z,3.17
2022-10-31T04:09:00.760Z,2.70
2022-10-31T04:11:33.022Z,2.50
2022-10-31T04:14:28.979Z,2.78
2022-10-31T04:16:56.755Z,2.72
2022-10-31T04:19:33.818Z,2.97
2022-10-31T04:22:00.973Z,2.72
2022-10-31T04:24:27.941Z,2.92
2022-10-31T04:26:54.938Z,2.90
2022-10-31T04:29:23.653Z,2.70
2022-10-31T04:31:51.469Z,2.80
2022-10-31T04:34:18.408Z,2.40
2022-10-31T04:36:45.363Z,2.85
2022-10-31T04:39:14.853Z,2.83
2022-10-31T04:41:48.657Z,2.73
2022-10-31T04:44:16.698Z,3.30
2022-10-31T04:46:44.090Z,3.05
2022-10-31T04:49:11.557Z,2.72
2022-10-31T04:51:38.630Z,3.88
2022-10-31T04:54:05.702Z,4.10
2022-10-31T04:56:55.349Z,3.78
2022-10-31T04:59:23.626Z,3.40
2022-10-31T05:01:53.636Z,3.85
2022-10-31T05:04:41.817Z,3.30
2022-10-31T05:07:08.874Z,3.10
2022-10-31T05:09:35.983Z,3.25
2022-10-31T05:12:02.935Z,3.30
2022-10-31T05:14:52.711Z,3.22
2022-10-31T05:17:38.287Z,3.35
2022-10-31T05:20:14.341Z,2.90
2022-10-31T05:23:13.496Z,2.75
2022-10-31T05:25:41.820Z,3.20
2022-10-31T05:28:08.953Z,3.67
2022-10-31T05:30:36.187Z,3.33
2022-10-31T05:33:04.784Z,3.03
2022-10-31T05:35:51.652Z,3.00
2022-10-31T05:38:24.383Z,2.80
2022-10-31T05:40:51.373Z,2.85
2022-10-31T05:43:18.259Z,2.78
2022-10-31T05:45:45.345Z,2.70
2022-10-31T05:48:30.203Z,2.42
2022-10-31T05:51:19.888Z,2.40
2022-10-31T05:53:48.212Z,2.38
2022-10-31T05:56:15.330Z,2.30
2022-10-31T05:58:42.206Z,2.47
2022-10-31T06:01:10.006Z,2.20
2022-10-31T06:03:38.544Z,2.20
2022-10-31T06:06:09.762Z,2.22
2022-10-31T06:08:39.075Z,2.20
2022-10-31T06:11:10.741Z,2.10
2022-10-31T06:14:07.317Z,1.80
2022-10-31T06:16:45.544Z,2.10
2022-10-31T06:19:32.653Z,2.05
2022-10-31T06:21:59.840Z,2.00
2022-10-31T06:24:26.836Z,2.10
2022-10-31T06:26:53.683Z,1.90
2022-10-31T06:29:21.684Z,1.65
2022-10-31T06:32:05.144Z,2.05
2022-10-31T06:34:37.124Z,2.25
2022-10-31T06:37:04.149Z,2.25
2022-10-31T06:39:31.498Z,2.45
2022-10-31T06:41:58.591Z,2.03
2022-10-31T06:44:27.602Z,2.13
2022-10-31T06:46:54.536Z,1.70
2022-10-31T06:49:51.304Z,1.92
2022-10-31T06:52:24.445Z,1.98
2022-10-31T06:54:51.927Z,1.75
2022-10-31T06:57:19.296Z,1.73
2022-10-31T06:59:46.349Z,1.80
2022-10-31T07:02:25.593Z,2.58
2022-10-31T07:04:52.695Z,3.20
2022-10-31T07:07:22.229Z,2.60
2022-10-31T07:09:50.781Z,2.75
2022-10-31T07:12:21.584Z,4.47
2022-10-31T07:14:56.421Z,3.10
2022-10-31T07:17:29.705Z,2.70
2022-10-31T07:19:58.940Z,3.85
2022-10-31T07:22:36.398Z,2.88
2022-10-31T07:25:05.582Z,2.45
2022-10-31T07:27:51.062Z,2.60
2022-10-31T07:30:19.827Z,3.40
2022-10-31T07:32:50.154Z,2.47
2022-10-31T07:35:37.166Z,2.40
2022-10-31T07:38:08.764Z,2.20
2022-10-31T07:40:35.748Z,1.90
2022-10-31T07:43:03.340Z,2.03
2022-10-31T07:45:54.094Z,2.30
2022-10-31T07:48:47.229Z,1.85
2022-10-31T07:51:32.517Z,2.13
2022-10-31T07:54:25.369Z,1.70
2022-10-31T07:56:52.330Z,1.90
2022-10-31T07:59:19.257Z,1.90
2022-10-31T08:01:46.213Z,2.10
2022-10-31T08:04:33.597Z,1.80
2022-10-31T08:07:18.987Z,1.70
2022-10-31T08:12:23.977Z,1.85
2022-10-31T08:14:51.359Z,1.70
2022-10-31T08:17:19.834Z,1.52
2022-10-31T08:19:53.217Z,1.70
2022-10-31T08:22:24.259Z,1.70
2022-10-31T08:24:51.204Z,1.80
2022-10-31T08:27:18.733Z,1.95
2022-10-31T08:29:46.070Z,1.92
2022-10-31T08:32:13.696Z,2.83
2022-10-31T08:34:58.472Z,2.13
2022-10-31T08:37:56.264Z,1.92
2022-10-31T08:43:03.052Z,2.28
2022-10-31T08:45:30.928Z,2.15
2022-10-31T08:48:02.285Z,2.10
2022-10-31T08:50:31.394Z,2.35
2022-10-31T08:53:06.105Z,3.13
2022-10-31T08:55:35.778Z,2.30
2022-10-31T08:58:05.946Z,3.45
2022-10-31T09:00:41.726Z,3.30
2022-10-31T09:03:17.056Z,2.90
2022-10-31T09:05:44.315Z,2.60
2022-10-31T09:08:16.288Z,2.55
2022-10-31T09:10:46.402Z,3.03
2022-10-31T09:13:20.682Z,2.97
2022-10-31T09:16:06.316Z,2.97
2022-10-31T09:18:34.911Z,3.88
2022-10-31T09:21:01.891Z,3.55
2022-10-31T09:23:30.927Z,2.97
2022-10-31T09:26:00.802Z,3.00
2022-10-31T09:28:47.442Z,3.08
2022-10-31T09:31:17.127Z,3.05
2022-10-31T09:33:49.832Z,3.55
2022-10-31T09:36:47.038Z,3.80
2022-10-31T09:39:23.129Z,3.67
2022-10-31T09:42:19.345Z,2.88
2022-10-31T09:44:46.515Z,3.20
2022-10-31T09:47:38.556Z,3.60
2022-10-31T09:50:48.630Z,4.50
2022-10-31T09:53:48.754Z,3.45
2022-10-31T09:56:22.028Z,4.03
2022-10-31T09:58:59.205Z,3.13
2022-10-31T10:01:48.192Z,3.17
2022-10-31T10:04:33.920Z,2.90
2022-10-31T10:07:24.183Z,3.83
2022-10-31T10:10:40.658Z,3.15
2022-10-31T10:13:47.810Z,3.13
2022-10-31T10:16:34.424Z,3.05
2022-10-31T10:19:07.663Z,3.03
2022-10-31T10:21:38.975Z,2.97
2022-10-31T10:24:24.247Z,4.55
2022-10-31T10:27:11.358Z,3.63
2022-10-31T10:29:50.533Z,3.00
2022-10-31T10:32:25.766Z,2.70
2022-10-31T10:34:55.283Z,2.80
2022-10-31T10:37:24.195Z,2.80
2022-10-31T10:39:54.833Z,3.15
2022-10-31T10:42:40.359Z,2.67
2022-10-31T10:45:44.152Z,2.72
2022-10-31T10:48:41.618Z,2.50
2022-10-31T10:51:25.562Z,2.80
2022-10-31T10:54:15.209Z,2.50
2022-10-31T10:57:00.773Z,2.42
2022-10-31T10:59:27.824Z,2.65
2022-10-31T11:01:54.712Z,2.45
2022-10-31T11:04:35.577Z,2.55
2022-10-31T11:07:06.310Z,3.03
2022-10-31T11:09:33.850Z,3.65
2022-10-31T11:12:01.113Z,3.80
2022-10-31T11:14:28.328Z,3.60
2022-10-31T11:17:10.053Z,3.10
2022-10-31T11:19:37.051Z,3.00
2022-10-31T11:22:17.365Z,3.13
2022-10-31T11:24:44.506Z,3.22
2022-10-31T11:27:18.276Z,2.78
2022-10-31T11:29:45.232Z,2.90
2022-10-31T11:32:25.051Z,2.97
2022-10-31T11:34:56.278Z,3.17
2022-10-31T11:37:26.513Z,4.30
2022-10-31T11:39:57.966Z,3.75
2022-10-31T11:42:27.625Z,3.80
2022-10-31T11:44:54.993Z,3.75
2022-10-31T11:47:27.797Z,3.50
2022-10-31T11:49:54.708Z,3.70
2022-10-31T11:52:29.623Z,4.47
2022-10-31T11:55:23.526Z,3.92
2022-10-31T11:57:56.811Z,3.78
2022-10-31T12:00:48.458Z,3.25
2022-10-31T12:03:23.127Z,3.40
2022-10-31T12:05:57.116Z,3.78
2022-10-31T12:08:24.015Z,3.30
2022-10-31T12:11:25.499Z,3.35
2022-10-31T12:14:14.045Z,3.38
2022-10-31T12:16:49.741Z,3.00
2022-10-31T12:19:50.081Z,3.10
2022-10-31T12:22:25.394Z,3.10
2022-10-31T12:24:52.213Z,3.00
2022-10-31T12:27:19.081Z,2.75
2022-10-31T12:30:13.506Z,2.83
2022-10-31T12:32:59.417Z,2.72
2022-10-31T12:35:45.057Z,3.42
2022-10-31T12:38:41.004Z,3.47
2022-10-31T12:41:29.782Z,3.38
2022-10-31T12:44:37.938Z,3.85
2022-10-31T12:47:26.685Z,3.83
2022-10-31T12:50:02.628Z,3.28
2022-10-31T12:52:41.400Z,3.50
2022-10-31T12:55:36.144Z,3.20
2022-10-31T12:58:22.892Z,2.75
2022-10-31T13:00:52.845Z,3.13
2022-10-31T13:03:34.689Z,3.03
2022-10-31T13:06:09.371Z,2.85
2022-10-31T13:08:56.548Z,2.85
2022-10-31T13:11:35.046Z,2.72
2022-10-31T13:14:17.060Z,2.95
2022-10-31T13:16:45.759Z,2.78
2022-10-31T13:19:23.700Z,3.00
2022-10-31T13:22:07.991Z,2.63
2022-10-31T13:24:54.033Z,3.10
2022-10-31T13:27:25.623Z,2.95
2022-10-31T13:30:05.803Z,2.80
2022-10-31T13:32:52.340Z,2.70
2022-10-31T13:35:25.111Z,3.17
2022-10-31T13:38:11.726Z,2.95
2022-10-31T13:41:03.584Z,2.75
2022-10-31T13:43:42.625Z,3.17
2022-10-31T13:46:34.782Z,3.25
2022-10-31T13:49:01.936Z,3.17
2022-10-31T13:51:33.301Z,3.03
2022-10-31T13:54:02.415Z,2.63
2022-10-31T13:56:31.599Z,2.70
2022-10-31T13:59:10.673Z,2.88
2022-10-31T14:01:37.939Z,3.67
2022-10-31T14:04:45.025Z,4.80
2022-10-31T14:07:13.307Z,5.72
2022-10-31T14:10:02.576Z,5.80
2022-10-31T14:12:40.532Z,5.15
2022-10-31T14:15:21.449Z,5.00
2022-10-31T14:18:00.074Z,4.32
2022-10-31T14:20:35.129Z,7.05
2022-10-31T14:23:36.897Z,5.40
2022-10-31T14:26:07.786Z,4.80
2022-10-31T14:28:35.995Z,4.53
2022-10-31T14:31:03.004Z,6.57
2022-10-31T14:33:31.038Z,7.07
2022-10-31T14:36:01.296Z,6.32
2022-10-31T14:38:31.390Z,6.13
2022-10-31T14:41:19.658Z,6.28
2022-10-31T14:44:08.257Z,5.43
2022-10-31T14:46:38.885Z,5.30
2022-10-31T14:49:15.605Z,4.95
2022-10-31T14:51:47.075Z,5.38
2022-10-31T14:54:21.458Z,5.95
2022-10-31T14:59:23.580Z,5.65
2022-10-31T15:02:16.712Z,6.00
2022-10-31T15:04:43.885Z,5.95
2022-10-31T15:07:12.670Z,5.18
2022-10-31T15:09:41.801Z,5.85
2022-10-31T15:12:29.077Z,5.97
2022-10-31T15:14:56.886Z,5.68
2022-10-31T15:17:24.523Z,5.47
2022-10-31T15:19:51.458Z,5.60
2022-10-31T15:22:19.721Z,5.95
2022-10-31T15:24:46.642Z,5.40
2022-10-31T15:27:16.946Z,5.53
2022-10-31T15:29:56.275Z,5.70
2022-10-31T15:32:26.741Z,5.30
2022-10-31T15:34:54.365Z,5.60
2022-10-31T15:37:22.393Z,5.50
2022-10-31T15:39:50.103Z,5.47
2022-10-31T15:42:28.613Z,5.85
2022-10-31T15:45:03.491Z,6.65
2022-10-31T15:47:31.420Z,6.03
2022-10-31T15:49:59.094Z,6.35
2022-10-31T15:52:43.828Z,6.32
2022-10-31T15:55:21.716Z,5.45
2022-10-31T15:57:50.245Z,6.20
2022-10-31T16:00:30.262Z,5.90
2022-10-31T16:03:15.095Z,6.80
2022-10-31T16:05:46.542Z,8.82
2022-10-31T16:08:31.257Z,11.38
2022-10-31T16:10:58.881Z,10.00
2022-10-31T16:13:32.593Z,9.18
2022-10-31T16:19:01.579Z,8.18
2022-10-31T16:21:31.348Z,8.23
2022-10-31T16:24:05.985Z,7.88
2022-10-31T16:26:33.033Z,7.70
2022-10-31T16:29:04.763Z,8.07
2022-10-31T16:31:39.432Z,7.80
2022-10-31T16:34:11.304Z,8.15
2022-10-31T16:36:40.126Z,7.78
2022-10-31T16:39:07.378Z,7.70
2022-10-31T16:41:42.746Z,7.85
2022-10-31T16:44:22.326Z,7.45
2022-10-31T16:46:49.336Z,7.20
2022-10-31T16:49:16.637Z,7.32
2022-10-31T16:51:43.905Z,7.68
2022-10-31T16:54:11.858Z,7.75
2022-10-31T16:56:38.936Z,8.07
2022-10-31T16:59:09.894Z,7.50
2022-10-31T17:01:41.306Z,7.50
2022-10-31T17:04:10.110Z,7.50
2022-10-31T17:06:37.472Z,7.68
2022-10-31T17:09:04.486Z,7.30
2022-10-31T17:11:31.303Z,7.25
2022-10-31T17:13:58.151Z,7.03
2022-10-31T17:16:25.189Z,6.93
2022-10-31T17:18:52.379Z,7.00
2022-10-31T17:21:23.272Z,7.22
2022-10-31T17:23:50.792Z,7.20
2022-10-31T17:26:18.041Z,7.35
2022-10-31T17:28:45.103Z,7.28
2022-10-31T17:31:33.054Z,7.38
2022-10-31T17:34:02.153Z,7.38
2022-10-31T17:36:31.099Z,7.10
2022-10-31T17:38:58.160Z,7.18
2022-10-31T17:41:25.051Z,7.72
2022-10-31T17:43:56.169Z,6.72
2022-10-31T17:46:23.033Z,7.07
2022-10-31T17:48:49.975Z,6.65
2022-10-31T17:51:16.922Z,7.00
2022-10-31T17:53:43.774Z,6.88
2022-10-31T17:56:10.671Z,6.80
2022-10-31T17:58:37.751Z,7.10
2022-10-31T18:01:09.823Z,6.88
2022-10-31T18:03:36.949Z,7.00
2022-10-31T18:06:03.967Z,6.72
2022-10-31T18:08:32.508Z,6.95
2022-10-31T18:11:02.451Z,6.82
2022-10-31T18:13:29.293Z,6.90
2022-10-31T18:15:56.259Z,7.10
2022-10-31T18:18:23.259Z,6.75
2022-10-31T18:20:50.086Z,6.40
2022-10-31T18:23:17.149Z,6.80
2022-10-31T18:25:44.175Z,6.38
2022-10-31T18:28:11.037Z,6.75
2022-10-31T18:30:41.258Z,6.88
2022-10-31T18:33:08.601Z,6.43
2022-10-31T18:35:37.899Z,6.32
2022-10-31T18:38:06.271Z,6.43
2022-10-31T18:40:36.201Z,6.22
2022-10-31T18:43:03.200Z,6.65
2022-10-31T18:45:41.757Z,6.13
2022-10-31T18:48:14.367Z,6.18
2022-10-31T18:50:41.419Z,6.30
2022-10-31T18:53:08.277Z,5.97
2022-10-31T18:55:39.872Z,6.28
2022-10-31T18:58:08.136Z,5.93
2022-10-31T19:00:35.024Z,6.70
2022-10-31T19:03:02.082Z,6.10
2022-10-31T19:05:29.200Z,6.07
2022-10-31T19:07:56.036Z,5.90
2022-10-31T19:10:22.876Z,6.60
2022-10-31T19:12:49.726Z,6.25
2022-10-31T19:15:16.515Z,6.22
2022-10-31T19:17:43.408Z,5.78
2022-10-31T19:20:10.953Z,6.30
2022-10-31T19:22:37.795Z,5.80
2022-10-31T19:25:07.678Z,5.90
2022-10-31T19:27:37.179Z,6.20
2022-10-31T19:30:04.444Z,6.25
2022-10-31T19:32:31.305Z,6.38
2022-10-31T19:34:58.218Z,6.22
2022-10-31T19:37:25.073Z,6.18
2022-10-31T19:39:52.103Z,5.95
2022-10-31T19:42:18.957Z,5.75
2022-10-31T19:44:45.798Z,6.18
2022-10-31T19:47:12.634Z,6.25
2022-10-31T19:49:39.509Z,6.18
2022-10-31T19:52:06.423Z,5.97
2022-10-31T19:54:33.278Z,6.20
2022-10-31T19:57:00.157Z,5.70
2022-10-31T19:59:27.067Z,6.13
2022-10-31T20:01:53.961Z,5.68
2022-10-31T20:04:20.932Z,6.40
2022-10-31T20:06:47.777Z,5.90
2022-10-31T20:09:14.806Z,5.88
2022-10-31T20:11:42.815Z,5.80
2022-10-31T20:14:11.423Z,5.93
2022-10-31T20:16:38.294Z,6.03
2022-10-31T20:19:05.240Z,5.72
2022-10-31T20:21:34.063Z,5.78
2022-10-31T20:24:02.604Z,5.72
2022-10-31T20:26:31.871Z,6.18
2022-10-31T20:28:59.314Z,6.38
2022-10-31T20:31:27.913Z,6.10
2022-10-31T20:33:55.805Z,5.85
2022-10-31T20:36:23.424Z,5.45
2022-10-31T20:38:51.121Z,5.88
2022-10-31T20:41:18.282Z,5.93
2022-10-31T20:43:45.201Z,5.70
2022-10-31T20:46:23.224Z,5.70
2022-10-31T20:48:50.270Z,5.70
2022-10-31T20:51:25.441Z,5.68
2022-10-31T20:53:52.786Z,5.70
2022-10-31T20:56:20.755Z,6.25
2022-10-31T20:58:47.684Z,5.68
2022-10-31T21:01:25.083Z,6.30
2022-10-31T21:03:52.220Z,5.63
2022-10-31T21:06:19.426Z,5.72
2022-10-31T21:08:46.278Z,5.95
2022-10-31T21:11:15.811Z,5.97
2022-10-31T21:13:43.500Z,6.00
2022-10-31T21:16:12.153Z,5.90
2022-10-31T21:18:39.664Z,5.97
2022-10-31T21:21:15.665Z,5.88
2022-10-31T21:23:43.250Z,6.28
2022-10-31T21:26:17.516Z,5.70
2022-10-31T21:28:44.387Z,5.50
2022-10-31T21:31:14.066Z,5.97
2022-10-31T21:33:41.064Z,5.47
2022-10-31T21:36:08.288Z,5.35
2022-10-31T21:38:35.332Z,5.53
2022-10-31T21:41:07.064Z,5.70
2022-10-31T21:43:37.798Z,5.50
2022-10-31T21:46:15.015Z,5.50
2022-10-31T21:48:42.974Z,5.53
2022-10-31T21:51:11.329Z,5.50
2022-10-31T21:53:56.812Z,5.63
2022-10-31T21:56:24.037Z,5.50
2022-10-31T21:58:51.539Z,5.70
2022-10-31T22:01:18.541Z,5.75
2022-10-31T22:03:45.469Z,5.38
2022-10-31T22:06:12.616Z,5.35
2022-10-31T22:08:40.722Z,5.07
2022-10-31T22:11:13.643Z,5.68
2022-10-31T22:13:40.960Z,5.30
2022-10-31T22:16:09.522Z,5.43
2022-10-31T22:18:36.581Z,5.47
2022-10-31T22:21:14.771Z,5.47
2022-10-31T22:23:41.872Z,5.40
2022-10-31T22:26:14.413Z,5.15
2022-10-31T22:28:42.083Z,5.65
2022-10-31T22:31:09.786Z,5.70
2022-10-31T22:33:36.780Z,5.10
2022-10-31T22:36:05.581Z,5.30
2022-10-31T22:38:34.387Z,5.55
2022-10-31T22:41:01.745Z,4.95
2022-10-31T22:43:28.556Z,5.10
2022-10-31T22:45:56.347Z,5.40
2022-10-31T22:48:23.222Z,5.10
2022-10-31T22:50:50.049Z,5.28
2022-10-31T22:53:16.887Z,5.30
2022-10-31T22:55:43.821Z,5.28
2022-10-31T22:58:10.653Z,4.72
2022-10-31T23:00:37.575Z,4.93
2022-10-31T23:03:04.527Z,4.95
2022-10-31T23:05:31.413Z,4.68
2022-10-31T23:07:58.567Z,5.30
2022-10-31T23:10:33.164Z,5.22
2022-10-31T23:13:19.383Z,5.20
2022-10-31T23:15:46.312Z,5.32
2022-10-31T23:18:23.856Z,5.45
2022-10-31T23:20:56.926Z,5.68
2022-10-31T23:23:23.785Z,5.28
2022-10-31T23:26:09.422Z,5.85
2022-10-31T23:28:36.457Z,5.28
2022-10-31T23:31:03.306Z,5.30
2022-10-31T23:33:31.548Z,4.70
2022-10-31T23:35:58.467Z,5.30
2022-10-31T23:38:25.291Z,5.32
2022-10-31T23:40:52.187Z,5.55
2022-10-31T23:43:19.051Z,5.32
2022-10-31T23:45:45.857Z,5.50
2022-10-31T23:48:12.731Z,5.18
2022-10-31T23:50:39.557Z,5.35
2022-10-31T23:53:06.376Z,5.53
2022-10-31T23:55:33.293Z,5.45
2022-10-31T23:58:00.407Z,5.88
